sensor_id;sensor_type;location;lat;lon;timestamp;temperature;humidity
18733;DHT22;9495;51.210;2.934;2024-01-10T00:00:49;-1.40;99.90
18733;DHT22;9495;51.210;2.934;2024-01-10T00:03:17;-1.70;99.90
18733;DHT22;9495;51.210;2.934;2024-01-10T00:05:46;-1.60;99.90
18733;DHT22;9495;51.210;2.934;2024-01-10T00:08:14;-1.60;99.90
18733;DHT22;9495;51.210;2.934;2024-01-10T00:10:44;-1.70;99.90
18733;DHT22;9495;51.210;2.934;2024-01-10T00:13:13;-1.50;99.90
18733;DHT22;9495;51.210;2.934;2024-01-10T00:15:41;-1.60;99.90
18733;DHT22;9495;51.210;2.934;2024-01-10T00:18:10;-1.80;99.90
18733;DHT22;9495;51.210;2.934;2024-01-10T00:20:39;-1.80;99.90
18733;DHT22;9495;51.210;2.934;2024-01-10T00:23:07;-1.80;99.90
18733;DHT22;9495;51.210;2.934;2024-01-10T00:25:36;-1.80;99.90
18733;DHT22;9495;51.210;2.934;2024-01-10T00:28:06;-1.80;99.90
18733;DHT22;9495;51.210;2.934;2024-01-10T00:30:34;-1.80;99.90
18733;DHT22;9495;51.210;2.934;2024-01-10T00:33:03;-1.80;99.90
18733;DHT22;9495;51.210;2.934;2024-01-10T00:35:32;-1.70;99.90
18733;DHT22;9495;51.210;2.934;2024-01-10T01:01:37;-2.00;99.90
18733;DHT22;9495;51.210;2.934;2024-01-10T01:04:06;-2.00;99.90
18733;DHT22;9495;51.210;2.934;2024-01-10T01:06:37;-2.00;99.90
18733;DHT22;9495;51.210;2.934;2024-01-10T01:09:06;-2.10;99.90
18733;DHT22;9495;51.210;2.934;2024-01-10T01:11:34;-2.10;99.90
18733;DHT22;9495;51.210;2.934;2024-01-10T01:14:03;-2.00;99.90
18733;DHT22;9495;51.210;2.934;2024-01-10T01:16:31;-2.10;99.90
18733;DHT22;9495;51.210;2.934;2024-01-10T01:19:01;-2.00;99.90
18733;DHT22;9495;51.210;2.934;2024-01-10T01:21:30;-2.00;99.90
18733;DHT22;9495;51.210;2.934;2024-01-10T01:23:58;-2.00;99.90
18733;DHT22;9495;51.210;2.934;2024-01-10T01:26:27;-2.00;99.90
18733;DHT22;9495;51.210;2.934;2024-01-10T01:28:55;-2.00;99.90
18733;DHT22;9495;51.210;2.934;2024-01-10T01:31:24;-2.00;99.90
18733;DHT22;9495;51.210;2.934;2024-01-10T01:33:52;-2.10;99.90
18733;DHT22;9495;51.210;2.934;2024-01-10T01:36:22;-2.10;99.90
18733;DHT22;9495;51.210;2.934;2024-01-10T01:38:50;-2.10;99.90
18733;DHT22;9495;51.210;2.934;2024-01-10T01:41:19;-2.10;99.90
18733;DHT22;9495;51.210;2.934;2024-01-10T01:43:48;-2.10;99.90
18733;DHT22;9495;51.210;2.934;2024-01-10T01:46:17;-2.20;99.90
18733;DHT22;9495;51.210;2.934;2024-01-10T01:48:46;-2.20;99.90
18733;DHT22;9495;51.210;2.934;2024-01-10T01:51:15;-2.20;99.90
18733;DHT22;9495;51.210;2.934;2024-01-10T01:53:46;-2.30;99.90
18733;DHT22;9495;51.210;2.934;2024-01-10T01:56:16;-2.30;99.90
18733;DHT22;9495;51.210;2.934;2024-01-10T01:58:45;-2.20;99.90
18733;DHT22;9495;51.210;2.934;2024-01-10T02:01:15;-2.30;99.90
18733;DHT22;9495;51.210;2.934;2024-01-10T02:03:50;-2.40;99.90
18733;DHT22;9495;51.210;2.934;2024-01-10T02:06:20;-2.40;99.90
18733;DHT22;9495;51.210;2.934;2024-01-10T02:08:50;-2.40;99.90
18733;DHT22;9495;51.210;2.934;2024-01-10T02:11:19;-2.40;99.90
18733;DHT22;9495;51.210;2.934;2024-01-10T02:13:48;-2.30;99.90
18733;DHT22;9495;51.210;2.934;2024-01-10T02:16:18;-2.40;99.90
18733;DHT22;9495;51.210;2.934;2024-01-10T02:18:47;-2.40;99.90
18733;DHT22;9495;51.210;2.934;2024-01-10T02:21:16;-2.50;99.90
18733;DHT22;9495;51.210;2.934;2024-01-10T02:23:45;-2.50;99.90
18733;DHT22;9495;51.210;2.934;2024-01-10T02:26:15;-2.40;99.90
18733;DHT22;9495;51.210;2.934;2024-01-10T02:28:44;-2.50;99.90
18733;DHT22;9495;51.210;2.934;2024-01-10T02:31:12;-2.50;99.90
18733;DHT22;9495;51.210;2.934;2024-01-10T02:33:41;-2.40;99.90
18733;DHT22;9495;51.210;2.934;2024-01-10T02:36:10;-2.50;99.90
18733;DHT22;9495;51.210;2.934;2024-01-10T02:38:38;-2.60;99.90
18733;DHT22;9495;51.210;2.934;2024-01-10T02:41:07;-2.60;99.90
18733;DHT22;9495;51.210;2.934;2024-01-10T02:43:37;-2.60;99.90
18733;DHT22;9495;51.210;2.934;2024-01-10T02:46:05;-2.60;99.90
18733;DHT22;9495;51.210;2.934;2024-01-10T02:48:34;-2.50;99.90
18733;DHT22;9495;51.210;2.934;2024-01-10T02:51:02;-2.60;99.90
18733;DHT22;9495;51.210;2.934;2024-01-10T02:53:31;-2.50;99.90
18733;DHT22;9495;51.210;2.934;2024-01-10T02:55:59;-2.50;99.90
18733;DHT22;9495;51.210;2.934;2024-01-10T02:58:28;-2.50;99.90
18733;DHT22;9495;51.210;2.934;2024-01-10T03:00:58;-2.50;99.90
18733;DHT22;9495;51.210;2.934;2024-01-10T03:03:28;-2.50;99.90
18733;DHT22;9495;51.210;2.934;2024-01-10T03:05:57;-2.60;99.90
18733;DHT22;9495;51.210;2.934;2024-01-10T03:08:26;-2.60;99.90
18733;DHT22;9495;51.210;2.934;2024-01-10T03:10:54;-2.60;99.90
18733;DHT22;9495;51.210;2.934;2024-01-10T03:13:23;-2.50;99.90
18733;DHT22;9495;51.210;2.934;2024-01-10T03:15:51;-2.50;99.90
18733;DHT22;9495;51.210;2.934;2024-01-10T03:18:23;-2.60;99.90
18733;DHT22;9495;51.210;2.934;2024-01-10T03:20:52;-2.50;99.90
18733;DHT22;9495;51.210;2.934;2024-01-10T03:23:20;-2.50;99.90
18733;DHT22;9495;51.210;2.934;2024-01-10T03:25:49;-2.60;99.90
18733;DHT22;9495;51.210;2.934;2024-01-10T03:28:17;-2.50;99.90
18733;DHT22;9495;51.210;2.934;2024-01-10T03:30:46;-2.60;99.90
18733;DHT22;9495;51.210;2.934;2024-01-10T03:33:14;-2.50;99.90
18733;DHT22;9495;51.210;2.934;2024-01-10T03:35:45;-2.60;99.90
18733;DHT22;9495;51.210;2.934;2024-01-10T03:38:13;-2.60;99.90
18733;DHT22;9495;51.210;2.934;2024-01-10T03:40:43;-2.60;99.90
18733;DHT22;9495;51.210;2.934;2024-01-10T03:43:12;-2.60;99.90
18733;DHT22;9495;51.210;2.934;2024-01-10T03:45:41;-2.60;99.90
18733;DHT22;9495;51.210;2.934;2024-01-10T03:48:09;-2.60;99.90
18733;DHT22;9495;51.210;2.934;2024-01-10T03:50:38;-2.60;99.90
18733;DHT22;9495;51.210;2.934;2024-01-10T03:53:07;-2.60;99.90
18733;DHT22;9495;51.210;2.934;2024-01-10T03:55:36;-2.50;99.90
18733;DHT22;9495;51.210;2.934;2024-01-10T03:58:06;-2.60;99.90
18733;DHT22;9495;51.210;2.934;2024-01-10T04:00:34;-2.50;99.90
18733;DHT22;9495;51.210;2.934;2024-01-10T04:03:03;-2.60;99.90
18733;DHT22;9495;51.210;2.934;2024-01-10T04:05:32;-2.50;99.90
18733;DHT22;9495;51.210;2.934;2024-01-10T04:08:01;-2.60;99.90
18733;DHT22;9495;51.210;2.934;2024-01-10T04:10:31;-2.60;99.90
18733;DHT22;9495;51.210;2.934;2024-01-10T04:13:00;-2.60;99.90
18733;DHT22;9495;51.210;2.934;2024-01-10T04:15:28;-2.60;99.90
18733;DHT22;9495;51.210;2.934;2024-01-10T04:17:57;-2.50;99.90
18733;DHT22;9495;51.210;2.934;2024-01-10T04:20:26;-2.50;99.90
18733;DHT22;9495;51.210;2.934;2024-01-10T04:22:55;-2.50;99.90
18733;DHT22;9495;51.210;2.934;2024-01-10T04:25:23;-2.50;99.90
18733;DHT22;9495;51.210;2.934;2024-01-10T04:27:53;-2.40;99.90
18733;DHT22;9495;51.210;2.934;2024-01-10T04:30:22;-2.50;99.90
18733;DHT22;9495;51.210;2.934;2024-01-10T04:32:51;-2.60;99.90
18733;DHT22;9495;51.210;2.934;2024-01-10T04:35:19;-2.50;99.90
18733;DHT22;9495;51.210;2.934;2024-01-10T04:37:48;-2.50;99.90
18733;DHT22;9495;51.210;2.934;2024-01-10T04:40:16;-2.50;99.90
18733;DHT22;9495;51.210;2.934;2024-01-10T04:42:46;-2.50;99.90
18733;DHT22;9495;51.210;2.934;2024-01-10T04:45:16;-2.50;99.90
18733;DHT22;9495;51.210;2.934;2024-01-10T04:47:44;-2.50;99.90
18733;DHT22;9495;51.210;2.934;2024-01-10T04:50:13;-2.50;99.90
18733;DHT22;9495;51.210;2.934;2024-01-10T04:52:42;-2.50;99.90
18733;DHT22;9495;51.210;2.934;2024-01-10T04:55:11;-2.50;99.90
18733;DHT22;9495;51.210;2.934;2024-01-10T04:57:39;-2.50;99.90
18733;DHT22;9495;51.210;2.934;2024-01-10T05:00:08;-2.50;99.90
18733;DHT22;9495;51.210;2.934;2024-01-10T05:02:38;-2.50;99.90
18733;DHT22;9495;51.210;2.934;2024-01-10T05:05:07;-2.50;99.90
18733;DHT22;9495;51.210;2.934;2024-01-10T05:07:36;-2.50;99.90
18733;DHT22;9495;51.210;2.934;2024-01-10T05:10:05;-2.60;99.90
18733;DHT22;9495;51.210;2.934;2024-01-10T05:12:34;-2.60;99.90
18733;DHT22;9495;51.210;2.934;2024-01-10T05:15:02;-2.70;99.90
18733;DHT22;9495;51.210;2.934;2024-01-10T05:17:31;-2.60;99.90
18733;DHT22;9495;51.210;2.934;2024-01-10T05:20:00;-2.80;99.90
18733;DHT22;9495;51.210;2.934;2024-01-10T05:22:29;-2.80;99.90
18733;DHT22;9495;51.210;2.934;2024-01-10T05:24:58;-2.80;99.90
18733;DHT22;9495;51.210;2.934;2024-01-10T05:27:27;-2.70;99.90
18733;DHT22;9495;51.210;2.934;2024-01-10T05:29:55;-2.80;99.90
18733;DHT22;9495;51.210;2.934;2024-01-10T05:32:24;-2.90;99.90
18733;DHT22;9495;51.210;2.934;2024-01-10T05:34:53;-3.00;99.90
18733;DHT22;9495;51.210;2.934;2024-01-10T05:37:23;-3.00;99.90
18733;DHT22;9495;51.210;2.934;2024-01-10T05:39:52;-3.00;99.90
18733;DHT22;9495;51.210;2.934;2024-01-10T05:42:20;-3.00;99.90
18733;DHT22;9495;51.210;2.934;2024-01-10T05:44:49;-3.00;99.90
18733;DHT22;9495;51.210;2.934;2024-01-10T05:47:18;-3.00;99.90
18733;DHT22;9495;51.210;2.934;2024-01-10T05:49:46;-3.00;99.90
18733;DHT22;9495;51.210;2.934;2024-01-10T05:52:14;-3.00;99.90
18733;DHT22;9495;51.210;2.934;2024-01-10T05:54:44;-2.90;99.90
18733;DHT22;9495;51.210;2.934;2024-01-10T05:57:13;-2.90;99.90
18733;DHT22;9495;51.210;2.934;2024-01-10T05:59:41;-2.80;99.90
18733;DHT22;9495;51.210;2.934;2024-01-10T06:02:10;-2.90;99.90
18733;DHT22;9495;51.210;2.934;2024-01-10T06:04:39;-2.90;99.90
18733;DHT22;9495;51.210;2.934;2024-01-10T06:07:08;-2.80;99.90
18733;DHT22;9495;51.210;2.934;2024-01-10T06:09:36;-2.80;99.90
18733;DHT22;9495;51.210;2.934;2024-01-10T06:12:06;-2.80;99.90
18733;DHT22;9495;51.210;2.934;2024-01-10T06:14:35;-2.80;99.90
18733;DHT22;9495;51.210;2.934;2024-01-10T06:17:04;-2.80;99.90
18733;DHT22;9495;51.210;2.934;2024-01-10T06:19:33;-2.80;99.90
18733;DHT22;9495;51.210;2.934;2024-01-10T06:22:01;-2.70;99.90
18733;DHT22;9495;51.210;2.934;2024-01-10T06:24:30;-2.80;99.90
18733;DHT22;9495;51.210;2.934;2024-01-10T06:26:59;-2.80;99.90
18733;DHT22;9495;51.210;2.934;2024-01-10T06:29:28;-2.80;99.90
18733;DHT22;9495;51.210;2.934;2024-01-10T06:31:57;-2.80;99.90
18733;DHT22;9495;51.210;2.934;2024-01-10T06:34:25;-2.70;99.90
18733;DHT22;9495;51.210;2.934;2024-01-10T06:36:54;-2.80;99.90
18733;DHT22;9495;51.210;2.934;2024-01-10T06:39:22;-2.80;99.90
18733;DHT22;9495;51.210;2.934;2024-01-10T06:41:51;-2.80;99.90
18733;DHT22;9495;51.210;2.934;2024-01-10T06:44:20;-2.90;99.90
18733;DHT22;9495;51.210;2.934;2024-01-10T06:46:50;-2.90;99.90
18733;DHT22;9495;51.210;2.934;2024-01-10T06:49:18;-2.90;99.90
18733;DHT22;9495;51.210;2.934;2024-01-10T06:51:47;-2.80;99.90
18733;DHT22;9495;51.210;2.934;2024-01-10T06:54:15;-2.90;99.90
18733;DHT22;9495;51.210;2.934;2024-01-10T06:56:45;-2.80;99.90
18733;DHT22;9495;51.210;2.934;2024-01-10T06:59:14;-2.80;99.90
18733;DHT22;9495;51.210;2.934;2024-01-10T07:01:42;-2.80;99.90
18733;DHT22;9495;51.210;2.934;2024-01-10T07:04:13;-2.80;99.90
18733;DHT22;9495;51.210;2.934;2024-01-10T07:06:44;-2.80;99.90
18733;DHT22;9495;51.210;2.934;2024-01-10T07:09:13;-2.90;99.90
18733;DHT22;9495;51.210;2.934;2024-01-10T07:11:46;-2.90;99.90
18733;DHT22;9495;51.210;2.934;2024-01-10T07:14:15;-2.90;99.90
18733;DHT22;9495;51.210;2.934;2024-01-10T07:16:44;-3.00;99.90
18733;DHT22;9495;51.210;2.934;2024-01-10T07:19:16;-2.90;99.90
18733;DHT22;9495;51.210;2.934;2024-01-10T07:21:44;-2.90;99.90
18733;DHT22;9495;51.210;2.934;2024-01-10T07:24:12;-2.90;99.90
18733;DHT22;9495;51.210;2.934;2024-01-10T07:26:41;-3.00;99.90
18733;DHT22;9495;51.210;2.934;2024-01-10T07:29:09;-3.00;99.90
18733;DHT22;9495;51.210;2.934;2024-01-10T07:31:38;-2.90;99.90
18733;DHT22;9495;51.210;2.934;2024-01-10T07:34:08;-2.90;99.90
18733;DHT22;9495;51.210;2.934;2024-01-10T07:36:43;-2.90;99.90
18733;DHT22;9495;51.210;2.934;2024-01-10T07:39:11;-3.00;99.90
18733;DHT22;9495;51.210;2.934;2024-01-10T07:41:42;-3.00;99.90
18733;DHT22;9495;51.210;2.934;2024-01-10T07:44:11;-3.00;99.90
18733;DHT22;9495;51.210;2.934;2024-01-10T07:46:40;-3.00;99.90
18733;DHT22;9495;51.210;2.934;2024-01-10T07:49:09;-3.00;99.90
18733;DHT22;9495;51.210;2.934;2024-01-10T07:51:38;-3.00;99.90
18733;DHT22;9495;51.210;2.934;2024-01-10T07:54:07;-3.00;99.90
18733;DHT22;9495;51.210;2.934;2024-01-10T07:56:36;-2.90;99.90
18733;DHT22;9495;51.210;2.934;2024-01-10T07:59:04;-2.90;99.90
18733;DHT22;9495;51.210;2.934;2024-01-10T08:01:33;-2.80;99.90
18733;DHT22;9495;51.210;2.934;2024-01-10T08:04:01;-2.80;99.90
18733;DHT22;9495;51.210;2.934;2024-01-10T08:06:30;-2.90;99.90
18733;DHT22;9495;51.210;2.934;2024-01-10T08:09:00;-2.80;99.90
18733;DHT22;9495;51.210;2.934;2024-01-10T08:11:32;-2.80;99.90
18733;DHT22;9495;51.210;2.934;2024-01-10T08:14:01;-2.80;99.90
18733;DHT22;9495;51.210;2.934;2024-01-10T08:16:30;-2.80;99.90
18733;DHT22;9495;51.210;2.934;2024-01-10T08:18:59;-2.90;99.90
18733;DHT22;9495;51.210;2.934;2024-01-10T08:21:28;-2.80;99.90
18733;DHT22;9495;51.210;2.934;2024-01-10T08:23:57;-2.80;99.90
18733;DHT22;9495;51.210;2.934;2024-01-10T08:26:27;-2.80;99.90
18733;DHT22;9495;51.210;2.934;2024-01-10T08:28:57;-2.90;99.90
18733;DHT22;9495;51.210;2.934;2024-01-10T08:31:26;-2.80;99.90
18733;DHT22;9495;51.210;2.934;2024-01-10T08:33:54;-2.80;99.90
18733;DHT22;9495;51.210;2.934;2024-01-10T08:36:24;-2.70;99.90
18733;DHT22;9495;51.210;2.934;2024-01-10T08:38:52;-2.80;99.90
18733;DHT22;9495;51.210;2.934;2024-01-10T08:41:21;-2.70;99.90
18733;DHT22;9495;51.210;2.934;2024-01-10T08:43:50;-2.70;99.90
18733;DHT22;9495;51.210;2.934;2024-01-10T08:46:19;-2.60;99.90
18733;DHT22;9495;51.210;2.934;2024-01-10T08:48:48;-2.50;99.90
18733;DHT22;9495;51.210;2.934;2024-01-10T08:51:17;-2.50;99.90
18733;DHT22;9495;51.210;2.934;2024-01-10T08:53:45;-2.40;99.90
18733;DHT22;9495;51.210;2.934;2024-01-10T08:56:15;-2.40;99.90
18733;DHT22;9495;51.210;2.934;2024-01-10T08:58:44;-2.40;99.90
18733;DHT22;9495;51.210;2.934;2024-01-10T09:01:13;-2.30;99.90
18733;DHT22;9495;51.210;2.934;2024-01-10T09:03:42;-2.40;99.90
18733;DHT22;9495;51.210;2.934;2024-01-10T09:06:11;-2.30;99.90
18733;DHT22;9495;51.210;2.934;2024-01-10T09:08:40;-2.30;99.90
18733;DHT22;9495;51.210;2.934;2024-01-10T09:11:09;-2.20;99.90
18733;DHT22;9495;51.210;2.934;2024-01-10T09:13:37;-2.20;99.90
18733;DHT22;9495;51.210;2.934;2024-01-10T09:16:07;-2.20;99.90
18733;DHT22;9495;51.210;2.934;2024-01-10T09:18:37;-2.10;99.90
18733;DHT22;9495;51.210;2.934;2024-01-10T09:21:08;-2.20;99.90
18733;DHT22;9495;51.210;2.934;2024-01-10T09:23:37;-2.10;99.90
18733;DHT22;9495;51.210;2.934;2024-01-10T09:26:05;-2.10;99.90
18733;DHT22;9495;51.210;2.934;2024-01-10T09:28:37;-2.00;99.90
18733;DHT22;9495;51.210;2.934;2024-01-10T09:31:05;-2.00;99.90
18733;DHT22;9495;51.210;2.934;2024-01-10T09:33:35;-2.00;99.90
18733;DHT22;9495;51.210;2.934;2024-01-10T09:36:04;-1.90;99.90
18733;DHT22;9495;51.210;2.934;2024-01-10T09:38:36;-1.90;99.90
18733;DHT22;9495;51.210;2.934;2024-01-10T09:41:05;-1.80;99.90
18733;DHT22;9495;51.210;2.934;2024-01-10T09:43:34;-1.80;99.90
18733;DHT22;9495;51.210;2.934;2024-01-10T09:46:02;-1.80;99.90
18733;DHT22;9495;51.210;2.934;2024-01-10T09:48:32;-1.70;99.90
18733;DHT22;9495;51.210;2.934;2024-01-10T09:51:01;-1.60;99.90
18733;DHT22;9495;51.210;2.934;2024-01-10T09:53:31;-1.60;99.90
18733;DHT22;9495;51.210;2.934;2024-01-10T09:56:03;-1.50;99.90
18733;DHT22;9495;51.210;2.934;2024-01-10T09:58:32;-1.50;99.90
18733;DHT22;9495;51.210;2.934;2024-01-10T10:01:06;-1.50;99.90
18733;DHT22;9495;51.210;2.934;2024-01-10T10:03:38;-1.40;99.90
18733;DHT22;9495;51.210;2.934;2024-01-10T10:06:09;-1.40;99.90
18733;DHT22;9495;51.210;2.934;2024-01-10T10:08:42;-1.40;99.90
18733;DHT22;9495;51.210;2.934;2024-01-10T10:11:13;-1.30;99.90
18733;DHT22;9495;51.210;2.934;2024-01-10T10:13:42;-1.30;99.90
18733;DHT22;9495;51.210;2.934;2024-01-10T10:16:11;-1.20;99.90
18733;DHT22;9495;51.210;2.934;2024-01-10T10:18:40;-1.10;99.90
18733;DHT22;9495;51.210;2.934;2024-01-10T10:21:11;-1.10;99.90
18733;DHT22;9495;51.210;2.934;2024-01-10T10:23:42;-0.90;99.90
18733;DHT22;9495;51.210;2.934;2024-01-10T10:26:13;-0.80;99.90
18733;DHT22;9495;51.210;2.934;2024-01-10T10:28:47;-0.60;99.90
18733;DHT22;9495;51.210;2.934;2024-01-10T10:31:17;-0.60;99.90
18733;DHT22;9495;51.210;2.934;2024-01-10T10:33:46;-0.70;99.90
18733;DHT22;9495;51.210;2.934;2024-01-10T10:36:16;-0.50;99.90
18733;DHT22;9495;51.210;2.934;2024-01-10T10:38:47;-0.40;99.90
18733;DHT22;9495;51.210;2.934;2024-01-10T10:41:18;-0.50;99.90
18733;DHT22;9495;51.210;2.934;2024-01-10T10:43:49;-0.20;99.90
18733;DHT22;9495;51.210;2.934;2024-01-10T10:46:19;-0.20;99.90
18733;DHT22;9495;51.210;2.934;2024-01-10T10:48:49;-0.10;99.90
18733;DHT22;9495;51.210;2.934;2024-01-10T10:51:24;0.20;99.90
18733;DHT22;9495;51.210;2.934;2024-01-10T10:53:54;0.30;99.90
18733;DHT22;9495;51.210;2.934;2024-01-10T10:56:24;0.10;99.90
18733;DHT22;9495;51.210;2.934;2024-01-10T10:58:58;-0.70;99.90
18733;DHT22;9495;51.210;2.934;2024-01-10T11:01:29;-1.10;99.90
18733;DHT22;9495;51.210;2.934;2024-01-10T11:03:58;-1.10;99.90
18733;DHT22;9495;51.210;2.934;2024-01-10T11:06:27;-1.10;99.90
18733;DHT22;9495;51.210;2.934;2024-01-10T11:08:59;-1.00;99.90
18733;DHT22;9495;51.210;2.934;2024-01-10T11:11:55;-1.00;99.90
18733;DHT22;9495;51.210;2.934;2024-01-10T11:14:35;-1.10;99.90
18733;DHT22;9495;51.210;2.934;2024-01-10T11:17:19;-0.70;99.90
18733;DHT22;9495;51.210;2.934;2024-01-10T11:20:14;-0.50;99.90
18733;DHT22;9495;51.210;2.934;2024-01-10T11:23:06;-0.30;99.90
18733;DHT22;9495;51.210;2.934;2024-01-10T11:25:38;-0.20;99.90
18733;DHT22;9495;51.210;2.934;2024-01-10T11:28:12;0.00;99.90
18733;DHT22;9495;51.210;2.934;2024-01-10T11:30:49;0.00;99.90
18733;DHT22;9495;51.210;2.934;2024-01-10T11:33:21;0.00;99.90
18733;DHT22;9495;51.210;2.934;2024-01-10T11:36:09;0.00;99.90
18733;DHT22;9495;51.210;2.934;2024-01-10T11:38:43;0.20;99.90
18733;DHT22;9495;51.210;2.934;2024-01-10T11:41:12;0.10;99.90
18733;DHT22;9495;51.210;2.934;2024-01-10T11:43:43;0.10;99.90
18733;DHT22;9495;51.210;2.934;2024-01-10T11:46:12;0.10;99.90
18733;DHT22;9495;51.210;2.934;2024-01-10T11:48:41;0.30;99.90
18733;DHT22;9495;51.210;2.934;2024-01-10T11:51:10;0.10;99.90
18733;DHT22;9495;51.210;2.934;2024-01-10T11:53:40;0.10;99.90
18733;DHT22;9495;51.210;2.934;2024-01-10T11:56:10;0.10;99.90
18733;DHT22;9495;51.210;2.934;2024-01-10T11:59:01;0.30;99.90
18733;DHT22;9495;51.210;2.934;2024-01-10T12:01:31;0.20;99.90
18733;DHT22;9495;51.210;2.934;2024-01-10T12:04:01;0.20;99.90
18733;DHT22;9495;51.210;2.934;2024-01-10T12:06:45;0.30;99.90
18733;DHT22;9495;51.210;2.934;2024-01-10T12:09:15;0.80;99.90
18733;DHT22;9495;51.210;2.934;2024-01-10T12:11:44;0.50;99.90
18733;DHT22;9495;51.210;2.934;2024-01-10T12:14:14;0.50;99.90
18733;DHT22;9495;51.210;2.934;2024-01-10T12:16:43;0.50;99.90
18733;DHT22;9495;51.210;2.934;2024-01-10T12:19:12;0.50;99.90
18733;DHT22;9495;51.210;2.934;2024-01-10T12:21:40;0.40;99.90
18733;DHT22;9495;51.210;2.934;2024-01-10T12:24:09;0.30;99.90
18733;DHT22;9495;51.210;2.934;2024-01-10T12:26:43;0.60;99.90
18733;DHT22;9495;51.210;2.934;2024-01-10T12:29:13;0.90;99.90
18733;DHT22;9495;51.210;2.934;2024-01-10T12:31:45;0.80;99.90
18733;DHT22;9495;51.210;2.934;2024-01-10T12:34:14;0.60;99.90
18733;DHT22;9495;51.210;2.934;2024-01-10T12:36:43;0.50;99.90
18733;DHT22;9495;51.210;2.934;2024-01-10T12:39:12;1.00;99.90
18733;DHT22;9495;51.210;2.934;2024-01-10T12:41:41;0.90;99.90
18733;DHT22;9495;51.210;2.934;2024-01-10T12:44:10;2.30;99.90
18733;DHT22;9495;51.210;2.934;2024-01-10T12:46:51;1.40;99.90
18733;DHT22;9495;51.210;2.934;2024-01-10T12:49:22;1.00;99.90
18733;DHT22;9495;51.210;2.934;2024-01-10T12:51:51;1.00;99.90
18733;DHT22;9495;51.210;2.934;2024-01-10T12:54:20;0.90;99.90
18733;DHT22;9495;51.210;2.934;2024-01-10T12:56:49;0.80;99.90
18733;DHT22;9495;51.210;2.934;2024-01-10T12:59:18;0.70;99.90
18733;DHT22;9495;51.210;2.934;2024-01-10T13:01:46;0.70;99.90
18733;DHT22;9495;51.210;2.934;2024-01-10T13:04:16;0.60;99.90
18733;DHT22;9495;51.210;2.934;2024-01-10T13:06:46;0.80;99.90
18733;DHT22;9495;51.210;2.934;2024-01-10T13:09:15;1.00;99.90
18733;DHT22;9495;51.210;2.934;2024-01-10T13:11:43;0.90;99.90
18733;DHT22;9495;51.210;2.934;2024-01-10T13:14:13;0.90;99.90
18733;DHT22;9495;51.210;2.934;2024-01-10T13:16:42;0.90;99.90
18733;DHT22;9495;51.210;2.934;2024-01-10T13:19:24;1.00;99.90
18733;DHT22;9495;51.210;2.934;2024-01-10T13:21:53;0.90;99.90
18733;DHT22;9495;51.210;2.934;2024-01-10T13:24:22;0.90;99.90
18733;DHT22;9495;51.210;2.934;2024-01-10T13:26:51;1.10;99.90
18733;DHT22;9495;51.210;2.934;2024-01-10T13:29:19;1.00;99.90
18733;DHT22;9495;51.210;2.934;2024-01-10T13:31:48;1.00;99.90
18733;DHT22;9495;51.210;2.934;2024-01-10T13:34:17;1.00;99.90
18733;DHT22;9495;51.210;2.934;2024-01-10T13:36:48;1.10;99.90
18733;DHT22;9495;51.210;2.934;2024-01-10T13:39:17;1.10;99.90
18733;DHT22;9495;51.210;2.934;2024-01-10T13:41:46;1.10;99.90
18733;DHT22;9495;51.210;2.934;2024-01-10T13:44:14;1.40;99.90
18733;DHT22;9495;51.210;2.934;2024-01-10T13:46:43;1.40;99.90
18733;DHT22;9495;51.210;2.934;2024-01-10T13:49:12;1.30;99.90
18733;DHT22;9495;51.210;2.934;2024-01-10T13:51:41;1.10;99.90
18733;DHT22;9495;51.210;2.934;2024-01-10T13:54:12;1.10;99.90
18733;DHT22;9495;51.210;2.934;2024-01-10T13:56:41;1.20;99.90
18733;DHT22;9495;51.210;2.934;2024-01-10T13:59:09;1.30;99.90
18733;DHT22;9495;51.210;2.934;2024-01-10T14:01:38;1.20;99.90
18733;DHT22;9495;51.210;2.934;2024-01-10T14:04:07;1.30;99.90
18733;DHT22;9495;51.210;2.934;2024-01-10T14:06:35;1.20;99.90
18733;DHT22;9495;51.210;2.934;2024-01-10T14:09:04;1.20;99.90
18733;DHT22;9495;51.210;2.934;2024-01-10T14:11:35;1.20;99.90
18733;DHT22;9495;51.210;2.934;2024-01-10T14:14:03;1.20;99.90
18733;DHT22;9495;51.210;2.934;2024-01-10T14:16:32;1.30;99.90
18733;DHT22;9495;51.210;2.934;2024-01-10T14:19:00;1.30;99.90
18733;DHT22;9495;51.210;2.934;2024-01-10T14:21:29;1.40;99.90
18733;DHT22;9495;51.210;2.934;2024-01-10T14:23:59;1.40;99.90
18733;DHT22;9495;51.210;2.934;2024-01-10T14:26:29;1.40;99.90
18733;DHT22;9495;51.210;2.934;2024-01-10T14:28:59;1.30;99.90
18733;DHT22;9495;51.210;2.934;2024-01-10T14:31:27;1.20;99.90
18733;DHT22;9495;51.210;2.934;2024-01-10T14:34:15;1.20;99.90
18733;DHT22;9495;51.210;2.934;2024-01-10T14:36:44;1.40;99.90
18733;DHT22;9495;51.210;2.934;2024-01-10T14:39:13;1.20;99.90
18733;DHT22;9495;51.210;2.934;2024-01-10T14:41:42;1.20;99.90
18733;DHT22;9495;51.210;2.934;2024-01-10T14:44:12;1.30;99.90
18733;DHT22;9495;51.210;2.934;2024-01-10T14:46:41;1.20;99.90
18733;DHT22;9495;51.210;2.934;2024-01-10T14:49:22;1.20;99.90
18733;DHT22;9495;51.210;2.934;2024-01-10T14:51:51;1.20;99.90
18733;DHT22;9495;51.210;2.934;2024-01-10T14:54:19;1.10;99.90
18733;DHT22;9495;51.210;2.934;2024-01-10T14:56:49;1.10;99.90
18733;DHT22;9495;51.210;2.934;2024-01-10T14:59:19;1.20;99.90
18733;DHT22;9495;51.210;2.934;2024-01-10T15:02:06;1.20;99.90
18733;DHT22;9495;51.210;2.934;2024-01-10T15:04:38;1.20;99.90
18733;DHT22;9495;51.210;2.934;2024-01-10T15:07:07;1.10;99.90
18733;DHT22;9495;51.210;2.934;2024-01-10T15:09:37;1.10;99.90
18733;DHT22;9495;51.210;2.934;2024-01-10T15:12:05;1.10;99.90
18733;DHT22;9495;51.210;2.934;2024-01-10T15:14:38;1.00;99.90
18733;DHT22;9495;51.210;2.934;2024-01-10T15:17:07;1.00;99.90
18733;DHT22;9495;51.210;2.934;2024-01-10T15:19:38;1.00;99.90
18733;DHT22;9495;51.210;2.934;2024-01-10T15:22:08;1.00;99.90
18733;DHT22;9495;51.210;2.934;2024-01-10T15:24:36;0.90;99.90
18733;DHT22;9495;51.210;2.934;2024-01-10T15:27:05;0.90;99.90
18733;DHT22;9495;51.210;2.934;2024-01-10T15:29:38;0.90;99.90
18733;DHT22;9495;51.210;2.934;2024-01-10T15:32:08;0.90;99.90
18733;DHT22;9495;51.210;2.934;2024-01-10T15:34:37;0.90;99.90
18733;DHT22;9495;51.210;2.934;2024-01-10T15:37:07;0.80;99.90
18733;DHT22;9495;51.210;2.934;2024-01-10T15:39:35;1.90;99.90
18733;DHT22;9495;51.210;2.934;2024-01-10T15:42:05;2.10;99.90
18733;DHT22;9495;51.210;2.934;2024-01-10T15:44:40;1.80;99.90
18733;DHT22;9495;51.210;2.934;2024-01-10T15:47:08;1.30;99.90
18733;DHT22;9495;51.210;2.934;2024-01-10T15:49:37;1.10;99.90
18733;DHT22;9495;51.210;2.934;2024-01-10T15:52:07;1.00;99.90
18733;DHT22;9495;51.210;2.934;2024-01-10T15:54:35;0.90;99.90
18733;DHT22;9495;51.210;2.934;2024-01-10T15:57:05;0.90;99.90
18733;DHT22;9495;51.210;2.934;2024-01-10T15:59:35;0.90;99.90
18733;DHT22;9495;51.210;2.934;2024-01-10T16:02:05;0.80;99.90
18733;DHT22;9495;51.210;2.934;2024-01-10T16:04:34;0.80;99.90
18733;DHT22;9495;51.210;2.934;2024-01-10T16:07:03;0.70;99.90
18733;DHT22;9495;51.210;2.934;2024-01-10T16:09:31;0.70;99.90
18733;DHT22;9495;51.210;2.934;2024-01-10T16:12:00;0.80;99.90
18733;DHT22;9495;51.210;2.934;2024-01-10T16:14:28;0.70;99.90
18733;DHT22;9495;51.210;2.934;2024-01-10T16:16:57;0.70;99.90
18733;DHT22;9495;51.210;2.934;2024-01-10T16:19:27;0.70;99.90
18733;DHT22;9495;51.210;2.934;2024-01-10T16:21:55;0.60;99.90
18733;DHT22;9495;51.210;2.934;2024-01-10T16:24:24;0.60;99.90
18733;DHT22;9495;51.210;2.934;2024-01-10T16:26:53;0.60;99.90
18733;DHT22;9495;51.210;2.934;2024-01-10T16:29:21;0.50;99.90